Terminal Aerodrome Forecast
Issued by NWS

Home | Current Version | Previous Version | Graphics & Text | Print | Product List | Glossary On
Versions: 1 2 3 4 5 6 7 8 9 10 11 12 13 14 15 16 17 18 19
000
FTUS41 KCLE 231957 AAB
TAFFDY
TAF AMD
KFDY 231957Z 2320/2418 28006KT P6SM SCT030 BKN100
      TEMPO 2320/2324 4SM -TSRA BKN020CB
     FM240600 29006KT P6SM BKN060
     FM241400 32008KT P6SM SCT025=

USA.gov is the U.S. government's official web portal to all federal, state and local government web resources and services.